sensor_id;sensor_type;location;lat;lon;timestamp;temperature;humidity
24049;DHT22;12250;50.956;4.746;2024-03-02T00:00:51;7.40;99.90
24049;DHT22;12250;50.956;4.746;2024-03-02T00:03:17;7.50;99.90
24049;DHT22;12250;50.956;4.746;2024-03-02T00:05:43;7.40;99.90
24049;DHT22;12250;50.956;4.746;2024-03-02T00:08:09;7.40;99.90
24049;DHT22;12250;50.956;4.746;2024-03-02T00:10:37;7.40;99.90
24049;DHT22;12250;50.956;4.746;2024-03-02T00:13:07;7.40;99.90
24049;DHT22;12250;50.956;4.746;2024-03-02T00:15:46;7.40;99.90
24049;DHT22;12250;50.956;4.746;2024-03-02T00:18:14;7.40;99.90
24049;DHT22;12250;50.956;4.746;2024-03-02T00:20:41;7.30;99.90
24049;DHT22;12250;50.956;4.746;2024-03-02T00:23:09;7.40;99.90
24049;DHT22;12250;50.956;4.746;2024-03-02T00:25:44;7.30;99.90
24049;DHT22;12250;50.956;4.746;2024-03-02T00:28:31;7.30;99.90
24049;DHT22;12250;50.956;4.746;2024-03-02T00:31:12;7.30;99.90
24049;DHT22;12250;50.956;4.746;2024-03-02T00:33:45;7.20;99.90
24049;DHT22;12250;50.956;4.746;2024-03-02T00:36:13;7.20;99.90
24049;DHT22;12250;50.956;4.746;2024-03-02T00:38:53;7.20;99.90
24049;DHT22;12250;50.956;4.746;2024-03-02T00:41:30;7.20;99.90
24049;DHT22;12250;50.956;4.746;2024-03-02T00:44:04;7.20;99.90
24049;DHT22;12250;50.956;4.746;2024-03-02T00:46:35;7.20;99.90
24049;DHT22;12250;50.956;4.746;2024-03-02T00:49:03;7.20;99.90
24049;DHT22;12250;50.956;4.746;2024-03-02T00:51:32;7.20;99.90
24049;DHT22;12250;50.956;4.746;2024-03-02T00:54:01;7.20;99.90
24049;DHT22;12250;50.956;4.746;2024-03-02T00:56:30;7.30;99.90
24049;DHT22;12250;50.956;4.746;2024-03-02T00:58:56;7.30;99.90
24049;DHT22;12250;50.956;4.746;2024-03-02T01:01:23;7.30;99.90
24049;DHT22;12250;50.956;4.746;2024-03-02T01:03:49;7.30;99.90
24049;DHT22;12250;50.956;4.746;2024-03-02T01:06:16;7.30;99.90
24049;DHT22;12250;50.956;4.746;2024-03-02T01:08:41;7.30;99.90
24049;DHT22;12250;50.956;4.746;2024-03-02T01:11:07;7.30;99.90
24049;DHT22;12250;50.956;4.746;2024-03-02T01:13:33;7.20;99.90
24049;DHT22;12250;50.956;4.746;2024-03-02T01:15:59;7.20;99.90
24049;DHT22;12250;50.956;4.746;2024-03-02T01:18:25;7.20;99.90
24049;DHT22;12250;50.956;4.746;2024-03-02T01:20:51;7.10;99.90
24049;DHT22;12250;50.956;4.746;2024-03-02T01:23:18;7.00;99.90
24049;DHT22;12250;50.956;4.746;2024-03-02T01:25:45;7.00;99.90
24049;DHT22;12250;50.956;4.746;2024-03-02T01:28:11;7.00;99.90
24049;DHT22;12250;50.956;4.746;2024-03-02T01:30:37;7.00;99.90
24049;DHT22;12250;50.956;4.746;2024-03-02T01:33:04;7.10;99.90
24049;DHT22;12250;50.956;4.746;2024-03-02T01:35:31;7.00;99.90
24049;DHT22;12250;50.956;4.746;2024-03-02T01:37:57;6.90;99.90
24049;DHT22;12250;50.956;4.746;2024-03-02T01:40:23;6.90;99.90
24049;DHT22;12250;50.956;4.746;2024-03-02T01:42:52;6.90;99.90
24049;DHT22;12250;50.956;4.746;2024-03-02T01:45:19;6.90;99.90
24049;DHT22;12250;50.956;4.746;2024-03-02T01:47:45;6.80;99.90
24049;DHT22;12250;50.956;4.746;2024-03-02T01:50:14;6.80;99.90
24049;DHT22;12250;50.956;4.746;2024-03-02T01:52:40;6.90;99.90
24049;DHT22;12250;50.956;4.746;2024-03-02T01:55:06;6.80;99.90
24049;DHT22;12250;50.956;4.746;2024-03-02T01:57:33;6.80;99.90
24049;DHT22;12250;50.956;4.746;2024-03-02T02:00:00;6.80;99.90
24049;DHT22;12250;50.956;4.746;2024-03-02T02:02:26;6.80;99.90
24049;DHT22;12250;50.956;4.746;2024-03-02T02:04:51;6.80;99.90
24049;DHT22;12250;50.956;4.746;2024-03-02T02:07:18;6.70;99.90
24049;DHT22;12250;50.956;4.746;2024-03-02T02:09:44;6.70;99.90
24049;DHT22;12250;50.956;4.746;2024-03-02T02:12:10;6.70;99.90
24049;DHT22;12250;50.956;4.746;2024-03-02T02:14:36;6.80;99.90
24049;DHT22;12250;50.956;4.746;2024-03-02T02:17:02;6.70;99.90
24049;DHT22;12250;50.956;4.746;2024-03-02T02:19:28;6.80;99.90
24049;DHT22;12250;50.956;4.746;2024-03-02T02:21:55;6.80;99.90
24049;DHT22;12250;50.956;4.746;2024-03-02T02:24:20;6.90;99.90
24049;DHT22;12250;50.956;4.746;2024-03-02T02:26:46;6.90;99.90
24049;DHT22;12250;50.956;4.746;2024-03-02T02:29:12;6.90;99.90
24049;DHT22;12250;50.956;4.746;2024-03-02T02:31:41;6.90;99.90
24049;DHT22;12250;50.956;4.746;2024-03-02T02:34:07;6.90;99.90
24049;DHT22;12250;50.956;4.746;2024-03-02T02:36:37;6.90;99.90
24049;DHT22;12250;50.956;4.746;2024-03-02T02:39:05;6.80;99.90
24049;DHT22;12250;50.956;4.746;2024-03-02T02:41:32;6.80;99.90
24049;DHT22;12250;50.956;4.746;2024-03-02T02:43:57;6.90;99.90
24049;DHT22;12250;50.956;4.746;2024-03-02T02:46:23;6.90;99.90
24049;DHT22;12250;50.956;4.746;2024-03-02T02:48:49;6.90;99.90
24049;DHT22;12250;50.956;4.746;2024-03-02T02:51:17;6.90;99.90
24049;DHT22;12250;50.956;4.746;2024-03-02T02:53:42;7.00;99.90
24049;DHT22;12250;50.956;4.746;2024-03-02T02:56:08;6.80;99.90
24049;DHT22;12250;50.956;4.746;2024-03-02T02:58:34;6.90;99.90
24049;DHT22;12250;50.956;4.746;2024-03-02T03:00:59;6.80;99.90
24049;DHT22;12250;50.956;4.746;2024-03-02T03:03:25;6.80;99.90
24049;DHT22;12250;50.956;4.746;2024-03-02T03:05:51;6.80;99.90
24049;DHT22;12250;50.956;4.746;2024-03-02T03:08:16;6.70;99.90
24049;DHT22;12250;50.956;4.746;2024-03-02T03:10:42;6.80;99.90
24049;DHT22;12250;50.956;4.746;2024-03-02T03:13:08;6.60;99.90
24049;DHT22;12250;50.956;4.746;2024-03-02T03:15:37;6.50;99.90
24049;DHT22;12250;50.956;4.746;2024-03-02T03:18:05;6.40;99.90
24049;DHT22;12250;50.956;4.746;2024-03-02T03:20:32;6.40;99.90
24049;DHT22;12250;50.956;4.746;2024-03-02T03:22:59;6.30;99.90
24049;DHT22;12250;50.956;4.746;2024-03-02T03:25:25;6.20;99.90
24049;DHT22;12250;50.956;4.746;2024-03-02T03:27:50;6.10;99.90
24049;DHT22;12250;50.956;4.746;2024-03-02T03:30:18;6.10;99.90
24049;DHT22;12250;50.956;4.746;2024-03-02T03:32:44;6.00;99.90
24049;DHT22;12250;50.956;4.746;2024-03-02T03:35:09;5.90;99.90
24049;DHT22;12250;50.956;4.746;2024-03-02T03:37:35;5.80;99.90
24049;DHT22;12250;50.956;4.746;2024-03-02T03:40:02;5.80;99.90
24049;DHT22;12250;50.956;4.746;2024-03-02T03:42:32;5.70;99.90
24049;DHT22;12250;50.956;4.746;2024-03-02T03:44:58;5.80;99.90
24049;DHT22;12250;50.956;4.746;2024-03-02T03:47:23;5.70;99.90
24049;DHT22;12250;50.956;4.746;2024-03-02T03:49:49;5.70;99.90
24049;DHT22;12250;50.956;4.746;2024-03-02T03:52:14;5.60;99.90
24049;DHT22;12250;50.956;4.746;2024-03-02T03:54:40;5.60;99.90
24049;DHT22;12250;50.956;4.746;2024-03-02T03:57:08;5.50;99.90
24049;DHT22;12250;50.956;4.746;2024-03-02T03:59:34;5.50;99.90
24049;DHT22;12250;50.956;4.746;2024-03-02T04:01:59;5.50;99.90
24049;DHT22;12250;50.956;4.746;2024-03-02T04:04:25;5.40;99.90
24049;DHT22;12250;50.956;4.746;2024-03-02T04:06:50;5.40;99.90
24049;DHT22;12250;50.956;4.746;2024-03-02T04:09:16;5.40;99.90
24049;DHT22;12250;50.956;4.746;2024-03-02T04:11:43;5.40;99.90
24049;DHT22;12250;50.956;4.746;2024-03-02T04:14:08;5.30;99.90
24049;DHT22;12250;50.956;4.746;2024-03-02T04:16:34;5.30;99.90
24049;DHT22;12250;50.956;4.746;2024-03-02T04:19:00;5.30;99.90
24049;DHT22;12250;50.956;4.746;2024-03-02T04:21:25;5.40;99.90
24049;DHT22;12250;50.956;4.746;2024-03-02T04:23:51;5.40;99.90
24049;DHT22;12250;50.956;4.746;2024-03-02T04:26:17;5.40;99.90
24049;DHT22;12250;50.956;4.746;2024-03-02T04:28:47;5.50;99.90
24049;DHT22;12250;50.956;4.746;2024-03-02T04:31:13;5.40;99.90
24049;DHT22;12250;50.956;4.746;2024-03-02T04:33:40;5.30;99.90
24049;DHT22;12250;50.956;4.746;2024-03-02T04:36:05;5.30;99.90
24049;DHT22;12250;50.956;4.746;2024-03-02T04:38:34;5.30;99.90
24049;DHT22;12250;50.956;4.746;2024-03-02T04:40:59;5.30;99.90
24049;DHT22;12250;50.956;4.746;2024-03-02T04:43:25;5.20;99.90
24049;DHT22;12250;50.956;4.746;2024-03-02T04:45:50;5.20;99.90
24049;DHT22;12250;50.956;4.746;2024-03-02T04:48:16;5.20;99.90
24049;DHT22;12250;50.956;4.746;2024-03-02T04:50:42;5.20;99.90
24049;DHT22;12250;50.956;4.746;2024-03-02T04:53:07;5.10;99.90
24049;DHT22;12250;50.956;4.746;2024-03-02T04:55:33;5.10;99.90
24049;DHT22;12250;50.956;4.746;2024-03-02T04:58:22;5.00;99.90
24049;DHT22;12250;50.956;4.746;2024-03-02T05:00:47;5.00;99.90
24049;DHT22;12250;50.956;4.746;2024-03-02T05:03:13;4.90;99.90
24049;DHT22;12250;50.956;4.746;2024-03-02T05:05:39;4.80;99.90
24049;DHT22;12250;50.956;4.746;2024-03-02T05:08:05;4.80;99.90
24049;DHT22;12250;50.956;4.746;2024-03-02T05:10:30;4.80;99.90
24049;DHT22;12250;50.956;4.746;2024-03-02T05:12:56;4.90;99.90
24049;DHT22;12250;50.956;4.746;2024-03-02T05:15:22;4.90;99.90
24049;DHT22;12250;50.956;4.746;2024-03-02T05:17:48;4.90;99.90
24049;DHT22;12250;50.956;4.746;2024-03-02T05:20:14;4.90;99.90
24049;DHT22;12250;50.956;4.746;2024-03-02T05:22:39;4.90;99.90
24049;DHT22;12250;50.956;4.746;2024-03-02T05:25:06;4.90;99.90
24049;DHT22;12250;50.956;4.746;2024-03-02T05:27:32;5.00;99.90
24049;DHT22;12250;50.956;4.746;2024-03-02T05:30:00;5.10;99.90
24049;DHT22;12250;50.956;4.746;2024-03-02T05:32:26;5.10;99.90
24049;DHT22;12250;50.956;4.746;2024-03-02T05:34:52;5.20;99.90
24049;DHT22;12250;50.956;4.746;2024-03-02T05:37:19;5.20;99.90
24049;DHT22;12250;50.956;4.746;2024-03-02T05:39:45;5.20;99.90
24049;DHT22;12250;50.956;4.746;2024-03-02T05:42:11;5.10;99.90
24049;DHT22;12250;50.956;4.746;2024-03-02T05:44:36;5.20;99.90
24049;DHT22;12250;50.956;4.746;2024-03-02T05:47:02;5.20;99.90
24049;DHT22;12250;50.956;4.746;2024-03-02T05:49:29;5.10;99.90
24049;DHT22;12250;50.956;4.746;2024-03-02T05:51:55;5.10;99.90
24049;DHT22;12250;50.956;4.746;2024-03-02T05:54:20;5.10;99.90
24049;DHT22;12250;50.956;4.746;2024-03-02T05:56:46;5.10;99.90
24049;DHT22;12250;50.956;4.746;2024-03-02T05:59:12;5.20;99.90
24049;DHT22;12250;50.956;4.746;2024-03-02T06:01:44;5.10;99.90
24049;DHT22;12250;50.956;4.746;2024-03-02T06:04:11;5.10;99.90
24049;DHT22;12250;50.956;4.746;2024-03-02T06:06:37;5.10;99.90
24049;DHT22;12250;50.956;4.746;2024-03-02T06:09:03;5.20;99.90
24049;DHT22;12250;50.956;4.746;2024-03-02T06:11:34;5.30;99.90
24049;DHT22;12250;50.956;4.746;2024-03-02T06:13:59;5.30;99.90
24049;DHT22;12250;50.956;4.746;2024-03-02T06:16:25;5.30;99.90
24049;DHT22;12250;50.956;4.746;2024-03-02T06:18:51;5.30;99.90
24049;DHT22;12250;50.956;4.746;2024-03-02T06:21:17;5.30;99.90
24049;DHT22;12250;50.956;4.746;2024-03-02T06:23:44;5.20;99.90
24049;DHT22;12250;50.956;4.746;2024-03-02T06:26:09;5.30;99.90
24049;DHT22;12250;50.956;4.746;2024-03-02T06:28:35;5.20;99.90
24049;DHT22;12250;50.956;4.746;2024-03-02T06:31:02;5.20;99.90
24049;DHT22;12250;50.956;4.746;2024-03-02T06:33:28;5.20;99.90
24049;DHT22;12250;50.956;4.746;2024-03-02T06:35:54;5.20;99.90
24049;DHT22;12250;50.956;4.746;2024-03-02T06:38:19;5.10;99.90
24049;DHT22;12250;50.956;4.746;2024-03-02T06:40:45;5.10;99.90
24049;DHT22;12250;50.956;4.746;2024-03-02T06:43:11;5.20;99.90
24049;DHT22;12250;50.956;4.746;2024-03-02T06:45:37;5.20;99.90
24049;DHT22;12250;50.956;4.746;2024-03-02T06:48:03;5.30;99.90
24049;DHT22;12250;50.956;4.746;2024-03-02T06:50:29;5.20;99.90
24049;DHT22;12250;50.956;4.746;2024-03-02T06:52:55;5.30;99.90
24049;DHT22;12250;50.956;4.746;2024-03-02T06:55:23;5.20;99.90
24049;DHT22;12250;50.956;4.746;2024-03-02T06:57:50;5.40;99.90
24049;DHT22;12250;50.956;4.746;2024-03-02T07:00:16;5.30;99.90
24049;DHT22;12250;50.956;4.746;2024-03-02T07:02:43;5.30;99.90
24049;DHT22;12250;50.956;4.746;2024-03-02T07:05:10;5.30;99.90
24049;DHT22;12250;50.956;4.746;2024-03-02T07:07:36;5.40;99.90
24049;DHT22;12250;50.956;4.746;2024-03-02T07:10:04;5.30;99.90
24049;DHT22;12250;50.956;4.746;2024-03-02T07:12:30;5.30;99.90
24049;DHT22;12250;50.956;4.746;2024-03-02T07:14:56;5.30;99.90
24049;DHT22;12250;50.956;4.746;2024-03-02T07:17:37;5.30;99.90
24049;DHT22;12250;50.956;4.746;2024-03-02T07:20:03;5.40;99.90
24049;DHT22;12250;50.956;4.746;2024-03-02T07:22:32;5.50;99.90
24049;DHT22;12250;50.956;4.746;2024-03-02T07:24:58;5.80;99.90
24049;DHT22;12250;50.956;4.746;2024-03-02T07:27:24;6.30;99.90
24049;DHT22;12250;50.956;4.746;2024-03-02T07:29:50;7.00;99.90
24049;DHT22;12250;50.956;4.746;2024-03-02T07:32:15;8.10;99.90
24049;DHT22;12250;50.956;4.746;2024-03-02T07:34:41;9.00;99.90
24049;DHT22;12250;50.956;4.746;2024-03-02T07:37:06;9.40;99.90
24049;DHT22;12250;50.956;4.746;2024-03-02T07:39:32;9.60;99.90
24049;DHT22;12250;50.956;4.746;2024-03-02T07:41:59;9.90;99.90
24049;DHT22;12250;50.956;4.746;2024-03-02T07:44:24;10.20;99.90
24049;DHT22;12250;50.956;4.746;2024-03-02T07:46:50;10.70;99.90
24049;DHT22;12250;50.956;4.746;2024-03-02T07:49:16;11.30;99.90
24049;DHT22;12250;50.956;4.746;2024-03-02T07:51:42;11.50;99.90
24049;DHT22;12250;50.956;4.746;2024-03-02T07:54:08;11.40;99.90
24049;DHT22;12250;50.956;4.746;2024-03-02T07:56:34;11.30;99.90
24049;DHT22;12250;50.956;4.746;2024-03-02T07:59:03;11.20;99.90
24049;DHT22;12250;50.956;4.746;2024-03-02T08:01:32;11.10;99.90
24049;DHT22;12250;50.956;4.746;2024-03-02T08:03:59;11.20;99.90
24049;DHT22;12250;50.956;4.746;2024-03-02T08:06:27;11.90;99.90
24049;DHT22;12250;50.956;4.746;2024-03-02T08:08:54;13.10;99.90
24049;DHT22;12250;50.956;4.746;2024-03-02T08:11:20;14.10;99.90
24049;DHT22;12250;50.956;4.746;2024-03-02T08:13:45;15.10;99.90
24049;DHT22;12250;50.956;4.746;2024-03-02T08:16:11;16.40;99.90
24049;DHT22;12250;50.956;4.746;2024-03-02T08:18:37;17.80;99.90
24049;DHT22;12250;50.956;4.746;2024-03-02T08:21:03;18.60;96.80
24049;DHT22;12250;50.956;4.746;2024-03-02T08:23:28;19.80;95.80
24049;DHT22;12250;50.956;4.746;2024-03-02T08:25:54;20.30;93.20
24049;DHT22;12250;50.956;4.746;2024-03-02T08:28:20;20.90;90.70
24049;DHT22;12250;50.956;4.746;2024-03-02T08:30:45;20.70;86.30
24049;DHT22;12250;50.956;4.746;2024-03-02T08:33:11;20.70;88.20
24049;DHT22;12250;50.956;4.746;2024-03-02T08:35:36;20.80;85.40
24049;DHT22;12250;50.956;4.746;2024-03-02T08:38:03;21.30;85.40
24049;DHT22;12250;50.956;4.746;2024-03-02T08:40:29;21.60;84.20
24049;DHT22;12250;50.956;4.746;2024-03-02T08:42:54;21.80;80.50
24049;DHT22;12250;50.956;4.746;2024-03-02T08:45:20;21.70;81.00
24049;DHT22;12250;50.956;4.746;2024-03-02T08:47:47;21.30;80.90
24049;DHT22;12250;50.956;4.746;2024-03-02T08:50:13;21.30;81.30
24049;DHT22;12250;50.956;4.746;2024-03-02T08:52:38;21.50;80.50
24049;DHT22;12250;50.956;4.746;2024-03-02T08:55:04;21.60;78.60
24049;DHT22;12250;50.956;4.746;2024-03-02T08:57:31;21.70;78.60
24049;DHT22;12250;50.956;4.746;2024-03-02T08:59:57;21.90;77.20
24049;DHT22;12250;50.956;4.746;2024-03-02T09:02:23;22.50;77.00
24049;DHT22;12250;50.956;4.746;2024-03-02T09:04:49;22.80;73.90
24049;DHT22;12250;50.956;4.746;2024-03-02T09:07:15;23.60;73.60
24049;DHT22;12250;50.956;4.746;2024-03-02T09:09:40;24.00;72.90
24049;DHT22;12250;50.956;4.746;2024-03-02T09:12:07;24.40;70.90
24049;DHT22;12250;50.956;4.746;2024-03-02T09:14:33;24.20;70.20
24049;DHT22;12250;50.956;4.746;2024-03-02T09:17:00;23.80;68.20
24049;DHT22;12250;50.956;4.746;2024-03-02T09:19:26;23.40;69.90
24049;DHT22;12250;50.956;4.746;2024-03-02T09:21:51;23.50;70.40
24049;DHT22;12250;50.956;4.746;2024-03-02T09:24:17;23.80;68.60
24049;DHT22;12250;50.956;4.746;2024-03-02T09:26:42;22.90;70.90
24049;DHT22;12250;50.956;4.746;2024-03-02T09:29:08;22.50;72.40
24049;DHT22;12250;50.956;4.746;2024-03-02T09:31:39;22.50;71.20
24049;DHT22;12250;50.956;4.746;2024-03-02T09:34:05;21.50;73.50
24049;DHT22;12250;50.956;4.746;2024-03-02T09:36:31;20.60;75.70
24049;DHT22;12250;50.956;4.746;2024-03-02T09:38:56;19.30;78.60
24049;DHT22;12250;50.956;4.746;2024-03-02T09:41:22;18.50;80.90
24049;DHT22;12250;50.956;4.746;2024-03-02T09:43:48;18.00;81.20
24049;DHT22;12250;50.956;4.746;2024-03-02T09:46:15;17.30;83.10
24049;DHT22;12250;50.956;4.746;2024-03-02T09:48:41;16.40;86.20
24049;DHT22;12250;50.956;4.746;2024-03-02T09:51:07;15.90;87.20
24049;DHT22;12250;50.956;4.746;2024-03-02T09:53:34;15.20;90.50
24049;DHT22;12250;50.956;4.746;2024-03-02T09:56:00;15.50;91.00
24049;DHT22;12250;50.956;4.746;2024-03-02T09:58:26;16.20;90.40
24049;DHT22;12250;50.956;4.746;2024-03-02T10:00:52;17.40;87.50
24049;DHT22;12250;50.956;4.746;2024-03-02T10:03:19;17.80;84.90
24049;DHT22;12250;50.956;4.746;2024-03-02T10:05:45;17.90;84.20
24049;DHT22;12250;50.956;4.746;2024-03-02T10:08:10;17.20;85.00
24049;DHT22;12250;50.956;4.746;2024-03-02T10:10:38;16.80;89.00
24049;DHT22;12250;50.956;4.746;2024-03-02T10:13:10;17.10;89.10
24049;DHT22;12250;50.956;4.746;2024-03-02T10:15:36;17.10;89.20
24049;DHT22;12250;50.956;4.746;2024-03-02T10:18:04;17.30;87.80
24049;DHT22;12250;50.956;4.746;2024-03-02T10:20:30;17.00;87.50
24049;DHT22;12250;50.956;4.746;2024-03-02T10:22:56;16.10;88.90
24049;DHT22;12250;50.956;4.746;2024-03-02T10:25:35;16.60;90.30
24049;DHT22;12250;50.956;4.746;2024-03-02T10:28:01;18.00;85.90
24049;DHT22;12250;50.956;4.746;2024-03-02T10:30:27;19.20;83.00
24049;DHT22;12250;50.956;4.746;2024-03-02T10:32:54;20.60;78.30
24049;DHT22;12250;50.956;4.746;2024-03-02T10:35:24;22.10;75.30
24049;DHT22;12250;50.956;4.746;2024-03-02T10:37:51;22.00;71.90
24049;DHT22;12250;50.956;4.746;2024-03-02T10:40:18;21.70;72.60
24049;DHT22;12250;50.956;4.746;2024-03-02T10:42:47;22.50;72.40
24049;DHT22;12250;50.956;4.746;2024-03-02T10:45:16;23.40;69.60
24049;DHT22;12250;50.956;4.746;2024-03-02T10:47:43;22.90;66.10
24049;DHT22;12250;50.956;4.746;2024-03-02T10:50:10;22.30;67.90
24049;DHT22;12250;50.956;4.746;2024-03-02T10:52:36;21.70;71.20
24049;DHT22;12250;50.956;4.746;2024-03-02T10:55:03;21.50;72.50
24049;DHT22;12250;50.956;4.746;2024-03-02T10:57:53;21.90;71.90
24049;DHT22;12250;50.956;4.746;2024-03-02T11:00:20;21.70;70.80
24049;DHT22;12250;50.956;4.746;2024-03-02T11:02:58;20.60;71.20
24049;DHT22;12250;50.956;4.746;2024-03-02T11:05:28;19.60;74.20
24049;DHT22;12250;50.956;4.746;2024-03-02T11:08:00;18.30;78.20
24049;DHT22;12250;50.956;4.746;2024-03-02T11:10:35;17.40;81.10
24049;DHT22;12250;50.956;4.746;2024-03-02T11:13:05;16.50;83.70
24049;DHT22;12250;50.956;4.746;2024-03-02T11:15:31;16.00;86.70
24049;DHT22;12250;50.956;4.746;2024-03-02T11:18:01;15.70;89.40
24049;DHT22;12250;50.956;4.746;2024-03-02T11:20:29;15.30;90.40
24049;DHT22;12250;50.956;4.746;2024-03-02T11:22:55;15.40;90.80
24049;DHT22;12250;50.956;4.746;2024-03-02T11:25:26;15.20;91.60
24049;DHT22;12250;50.956;4.746;2024-03-02T11:33:08;15.00;92.30
24049;DHT22;12250;50.956;4.746;2024-03-02T11:35:35;14.90;92.70
24049;DHT22;12250;50.956;4.746;2024-03-02T11:38:01;14.80;92.50
24049;DHT22;12250;50.956;4.746;2024-03-02T11:40:29;14.60;91.90
24049;DHT22;12250;50.956;4.746;2024-03-02T11:42:56;14.80;92.30
24049;DHT22;12250;50.956;4.746;2024-03-02T11:45:28;14.80;92.40
24049;DHT22;12250;50.956;4.746;2024-03-02T11:47:54;14.80;92.50
24049;DHT22;12250;50.956;4.746;2024-03-02T11:50:40;14.60;92.40
24049;DHT22;12250;50.956;4.746;2024-03-02T11:53:08;14.60;93.30
24049;DHT22;12250;50.956;4.746;2024-03-02T11:55:38;14.70;92.90
24049;DHT22;12250;50.956;4.746;2024-03-02T11:58:05;14.70;93.40
24049;DHT22;12250;50.956;4.746;2024-03-02T12:00:31;14.60;93.90
24049;DHT22;12250;50.956;4.746;2024-03-02T12:05:27;14.40;94.40
24049;DHT22;12250;50.956;4.746;2024-03-02T12:07:57;14.40;93.80
24049;DHT22;12250;50.956;4.746;2024-03-02T12:10:23;14.30;94.50
24049;DHT22;12250;50.956;4.746;2024-03-02T12:12:56;14.30;94.40
24049;DHT22;12250;50.956;4.746;2024-03-02T12:15:26;14.40;94.20
24049;DHT22;12250;50.956;4.746;2024-03-02T12:17:54;14.50;93.90
24049;DHT22;12250;50.956;4.746;2024-03-02T12:20:20;14.60;95.00
24049;DHT22;12250;50.956;4.746;2024-03-02T12:22:46;14.70;94.70
24049;DHT22;12250;50.956;4.746;2024-03-02T12:25:12;14.80;94.40
24049;DHT22;12250;50.956;4.746;2024-03-02T12:27:39;14.80;94.80
24049;DHT22;12250;50.956;4.746;2024-03-02T12:30:05;14.80;93.20
24049;DHT22;12250;50.956;4.746;2024-03-02T12:32:34;14.50;93.40
24049;DHT22;12250;50.956;4.746;2024-03-02T12:34:59;14.30;94.50
24049;DHT22;12250;50.956;4.746;2024-03-02T12:37:26;14.40;94.30
24049;DHT22;12250;50.956;4.746;2024-03-02T12:39:53;14.60;94.00
24049;DHT22;12250;50.956;4.746;2024-03-02T12:42:18;14.80;93.00
24049;DHT22;12250;50.956;4.746;2024-03-02T12:44:44;14.70;93.30
24049;DHT22;12250;50.956;4.746;2024-03-02T12:47:10;14.90;94.00
24049;DHT22;12250;50.956;4.746;2024-03-02T12:49:40;14.90;93.10
24049;DHT22;12250;50.956;4.746;2024-03-02T12:52:06;15.00;92.90
24049;DHT22;12250;50.956;4.746;2024-03-02T12:54:32;15.00;93.10
24049;DHT22;12250;50.956;4.746;2024-03-02T12:56:58;15.20;93.70
24049;DHT22;12250;50.956;4.746;2024-03-02T12:59:24;15.30;93.30
24049;DHT22;12250;50.956;4.746;2024-03-02T13:01:52;15.20;93.20
24049;DHT22;12250;50.956;4.746;2024-03-02T13:04:24;14.90;93.30
24049;DHT22;12250;50.956;4.746;2024-03-02T13:06:50;14.90;92.90
24049;DHT22;12250;50.956;4.746;2024-03-02T13:09:17;14.60;93.20
24049;DHT22;12250;50.956;4.746;2024-03-02T13:11:44;14.80;94.00
24049;DHT22;12250;50.956;4.746;2024-03-02T13:14:12;14.90;93.50
24049;DHT22;12250;50.956;4.746;2024-03-02T13:16:41;15.30;94.10
24049;DHT22;12250;50.956;4.746;2024-03-02T13:19:13;15.20;93.50
24049;DHT22;12250;50.956;4.746;2024-03-02T13:21:39;15.10;93.20
24049;DHT22;12250;50.956;4.746;2024-03-02T13:24:05;15.50;93.90
24049;DHT22;12250;50.956;4.746;2024-03-02T13:26:31;15.40;92.90
24049;DHT22;12250;50.956;4.746;2024-03-02T13:28:57;15.40;93.30
24049;DHT22;12250;50.956;4.746;2024-03-02T13:31:23;15.50;93.30
24049;DHT22;12250;50.956;4.746;2024-03-02T13:33:48;15.60;92.90
24049;DHT22;12250;50.956;4.746;2024-03-02T13:36:14;15.40;93.20
24049;DHT22;12250;50.956;4.746;2024-03-02T13:38:40;15.20;94.20
24049;DHT22;12250;50.956;4.746;2024-03-02T13:41:05;15.30;93.10
24049;DHT22;12250;50.956;4.746;2024-03-02T13:43:31;15.20;93.80
24049;DHT22;12250;50.956;4.746;2024-03-02T13:46:01;15.40;93.50
24049;DHT22;12250;50.956;4.746;2024-03-02T13:48:27;15.40;92.90
24049;DHT22;12250;50.956;4.746;2024-03-02T13:50:53;15.20;93.40
24049;DHT22;12250;50.956;4.746;2024-03-02T13:53:19;14.90;94.20
24049;DHT22;12250;50.956;4.746;2024-03-02T13:55:45;14.90;93.90
24049;DHT22;12250;50.956;4.746;2024-03-02T13:58:11;14.60;94.80
24049;DHT22;12250;50.956;4.746;2024-03-02T14:00:38;14.40;95.10
24049;DHT22;12250;50.956;4.746;2024-03-02T14:03:05;14.40;95.60
24049;DHT22;12250;50.956;4.746;2024-03-02T14:05:31;14.60;95.60
24049;DHT22;12250;50.956;4.746;2024-03-02T14:07:57;14.80;94.90
24049;DHT22;12250;50.956;4.746;2024-03-02T14:10:24;14.70;94.30
24049;DHT22;12250;50.956;4.746;2024-03-02T14:12:50;14.60;94.80
24049;DHT22;12250;50.956;4.746;2024-03-02T14:15:15;14.60;95.30
24049;DHT22;12250;50.956;4.746;2024-03-02T14:17:41;14.50;95.20
24049;DHT22;12250;50.956;4.746;2024-03-02T14:20:08;14.60;95.50
24049;DHT22;12250;50.956;4.746;2024-03-02T14:22:35;14.70;95.30
24049;DHT22;12250;50.956;4.746;2024-03-02T14:25:03;14.80;95.40
24049;DHT22;12250;50.956;4.746;2024-03-02T14:27:29;14.90;94.90
24049;DHT22;12250;50.956;4.746;2024-03-02T14:29:55;14.80;95.30
24049;DHT22;12250;50.956;4.746;2024-03-02T14:32:20;14.90;95.50
24049;DHT22;12250;50.956;4.746;2024-03-02T14:34:46;14.90;95.10
24049;DHT22;12250;50.956;4.746;2024-03-02T14:37:13;14.90;95.40
24049;DHT22;12250;50.956;4.746;2024-03-02T14:39:39;14.90;95.80
24049;DHT22;12250;50.956;4.746;2024-03-02T14:42:05;14.70;95.40
24049;DHT22;12250;50.956;4.746;2024-03-02T14:44:30;14.70;96.00
24049;DHT22;12250;50.956;4.746;2024-03-02T14:46:56;14.60;96.30
24049;DHT22;12250;50.956;4.746;2024-03-02T14:49:24;14.70;96.50
24049;DHT22;12250;50.956;4.746;2024-03-02T14:51:50;14.80;96.30
24049;DHT22;12250;50.956;4.746;2024-03-02T14:54:16;14.90;95.90
24049;DHT22;12250;50.956;4.746;2024-03-02T14:56:41;15.00;95.80
24049;DHT22;12250;50.956;4.746;2024-03-02T14:59:07;15.00;95.40
24049;DHT22;12250;50.956;4.746;2024-03-02T15:01:33;15.10;95.80
24049;DHT22;12250;50.956;4.746;2024-03-02T15:03:58;15.00;95.30
24049;DHT22;12250;50.956;4.746;2024-03-02T15:06:24;14.80;94.80
24049;DHT22;12250;50.956;4.746;2024-03-02T15:08:50;14.90;95.10
24049;DHT22;12250;50.956;4.746;2024-03-02T15:11:16;14.90;95.20
24049;DHT22;12250;50.956;4.746;2024-03-02T15:13:41;14.70;95.40
24049;DHT22;12250;50.956;4.746;2024-03-02T15:16:07;14.50;95.50
24049;DHT22;12250;50.956;4.746;2024-03-02T15:18:33;14.50;95.80
24049;DHT22;12250;50.956;4.746;2024-03-02T15:21:00;14.40;95.90
24049;DHT22;12250;50.956;4.746;2024-03-02T15:23:26;14.30;96.10
24049;DHT22;12250;50.956;4.746;2024-03-02T15:25:51;14.30;96.10
24049;DHT22;12250;50.956;4.746;2024-03-02T15:28:17;14.10;96.20
24049;DHT22;12250;50.956;4.746;2024-03-02T15:30:44;14.10;96.00
24049;DHT22;12250;50.956;4.746;2024-03-02T15:33:09;14.10;96.50
24049;DHT22;12250;50.956;4.746;2024-03-02T15:35:35;14.10;97.00
24049;DHT22;12250;50.956;4.746;2024-03-02T15:38:00;14.10;97.20
24049;DHT22;12250;50.956;4.746;2024-03-02T15:40:26;14.10;96.50
24049;DHT22;12250;50.956;4.746;2024-03-02T15:42:52;14.00;96.90